Terminal Aerodrome Forecast
Issued by NWS Boise, ID

Home | Current Version | Previous Version | Text Only | Print | Product List | Glossary On
Versions: 1 2 3 4 5 6 7 8 9 10 11 12
000
FTUS45 KBOI 252320
TAFBNO
TAF
KBNO 252320Z 2600/2624 29008KT P6SM BKN070 OVC200
     FM261100 VRB05KT P6SM SCT250
     FM261800 24013KT P6SM SCT250=

USA.gov is the U.S. government's official web portal to all federal, state and local government web resources and services.